createdAt,value
2023-02-17T00:01:34.287Z,8.55
2023-02-17T00:04:02.889Z,8.56
2023-02-17T00:06:32.417Z,8.57
2023-02-17T00:09:01.991Z,8.57
2023-02-17T00:11:30.770Z,8.59
2023-02-17T00:14:00.558Z,8.61
2023-02-17T00:16:29.515Z,8.63
2023-02-17T00:19:02.258Z,8.64
2023-02-17T00:21:31.852Z,8.66
2023-02-17T00:24:00.505Z,8.68
2023-02-17T00:26:29.235Z,8.71
2023-02-17T00:28:59.278Z,8.74
2023-02-17T00:31:27.654Z,8.75
2023-02-17T00:33:56.649Z,8.75
2023-02-17T00:36:26.238Z,8.76
2023-02-17T00:38:56.970Z,8.79
2023-02-17T00:41:29.094Z,8.81
2023-02-17T00:43:59.662Z,8.81
2023-02-17T00:46:28.096Z,8.81
2023-02-17T00:48:56.133Z,8.82
2023-02-17T00:51:25.514Z,8.82
2023-02-17T00:53:53.377Z,8.85
2023-02-17T00:56:21.382Z,8.87
2023-02-17T00:58:49.277Z,8.88
2023-02-17T01:01:18.134Z,8.91
2023-02-17T01:03:46.380Z,8.94
2023-02-17T01:06:24.329Z,8.82
2023-02-17T01:08:53.397Z,8.23
2023-02-17T01:11:28.186Z,7.65
2023-02-17T01:13:58.956Z,7.18
2023-02-17T01:16:30.842Z,6.82
2023-02-17T01:19:00.789Z,6.65
2023-02-17T01:21:30.233Z,6.98
2023-02-17T01:24:00.550Z,7.38
2023-02-17T01:26:31.598Z,7.67
2023-02-17T01:29:04.122Z,7.87
2023-02-17T01:31:32.686Z,8.01
2023-02-17T01:34:03.939Z,8.12
2023-02-17T01:36:32.769Z,8.21
2023-02-17T01:39:01.151Z,8.29
2023-02-17T01:41:29.750Z,8.37
2023-02-17T01:44:16.746Z,8.45
2023-02-17T01:46:47.989Z,8.50
2023-02-17T01:49:38.011Z,8.55
2023-02-17T01:52:21.274Z,8.61
2023-02-17T01:54:55.334Z,8.64
2023-02-17T01:57:27.400Z,8.68
2023-02-17T01:59:56.154Z,8.73
2023-02-17T02:02:24.370Z,8.80
2023-02-17T02:04:54.734Z,8.84
2023-02-17T02:07:33.289Z,8.87
2023-02-17T02:10:03.010Z,8.90
2023-02-17T02:12:35.457Z,8.93
2023-02-17T02:15:09.383Z,8.96
2023-02-17T02:18:16.166Z,8.98
2023-02-17T02:21:07.908Z,9.00
2023-02-17T02:24:04.860Z,9.02
2023-02-17T02:27:00.117Z,9.05
2023-02-17T02:29:57.731Z,9.08
2023-02-17T02:32:49.690Z,9.10
2023-02-17T02:35:26.848Z,9.13
2023-02-17T02:38:09.632Z,9.17
2023-02-17T02:40:44.684Z,9.20
2023-02-17T02:43:14.846Z,9.23
2023-02-17T02:45:43.154Z,9.27
2023-02-17T02:48:11.238Z,9.29
2023-02-17T02:50:59.033Z,9.33
2023-02-17T02:54:07.703Z,9.36
2023-02-17T02:56:58.126Z,9.36
2023-02-17T02:59:35.202Z,9.40
2023-02-17T03:02:17.644Z,9.43
2023-02-17T03:04:59.477Z,9.44
2023-02-17T03:07:55.650Z,9.44
2023-02-17T03:23:43.985Z,7.62
2023-02-17T03:26:12.028Z,8.04
2023-02-17T03:28:40.972Z,8.32
2023-02-17T03:31:09.000Z,8.54
2023-02-17T03:33:36.980Z,8.72
2023-02-17T03:36:05.413Z,8.86
2023-02-17T03:38:33.470Z,8.98
2023-02-17T03:41:01.321Z,9.10
2023-02-17T03:43:29.161Z,9.21
2023-02-17T03:45:57.066Z,9.28
2023-02-17T03:48:24.929Z,9.34
2023-02-17T03:50:52.774Z,9.39
2023-02-17T03:53:20.801Z,9.44
2023-02-17T03:55:48.592Z,9.48
2023-02-17T03:58:16.798Z,9.53
2023-02-17T04:00:44.600Z,9.58
2023-02-17T04:03:12.441Z,9.63
2023-02-17T04:05:40.247Z,9.67
2023-02-17T04:08:08.414Z,9.71
2023-02-17T04:10:36.223Z,9.77
2023-02-17T04:13:04.127Z,9.81
2023-02-17T04:15:32.518Z,9.85
2023-02-17T04:18:00.323Z,9.88
2023-02-17T04:20:28.340Z,9.92
2023-02-17T04:22:56.291Z,9.94
2023-02-17T04:25:24.339Z,9.97
2023-02-17T04:27:52.128Z,10.00
2023-02-17T04:30:22.171Z,10.03
2023-02-17T04:37:22.061Z,9.99
2023-02-17T04:39:49.888Z,10.02
2023-02-17T04:42:17.982Z,10.06
2023-02-17T04:44:45.896Z,10.09
2023-02-17T04:47:13.781Z,10.11
2023-02-17T04:49:41.721Z,10.12
2023-02-17T04:52:09.592Z,10.14
2023-02-17T04:54:37.702Z,10.15
2023-02-17T04:57:05.631Z,10.13
2023-02-17T04:59:33.588Z,10.10
2023-02-17T05:02:01.401Z,10.11
2023-02-17T05:04:29.591Z,10.11
2023-02-17T05:06:57.360Z,10.10
2023-02-17T05:09:25.437Z,10.10
2023-02-17T05:11:53.325Z,10.11
2023-02-17T05:14:21.336Z,10.12
2023-02-17T05:16:49.213Z,10.14
2023-02-17T05:19:17.109Z,10.14
2023-02-17T05:21:45.008Z,10.16
2023-02-17T05:24:13.031Z,10.16
2023-02-17T05:26:40.990Z,10.16
2023-02-17T05:29:08.897Z,10.16
2023-02-17T05:31:37.152Z,10.16
2023-02-17T05:34:05.143Z,10.17
2023-02-17T05:36:32.928Z,10.17
2023-02-17T05:39:00.829Z,10.17
2023-02-17T05:41:28.806Z,10.16
2023-02-17T05:43:56.731Z,10.13
2023-02-17T05:46:24.553Z,10.10
2023-02-17T05:48:52.378Z,10.09
2023-02-17T05:51:20.243Z,10.08
2023-02-17T05:58:21.690Z,10.00
2023-02-17T06:00:49.729Z,10.02
2023-02-17T06:03:17.641Z,10.06
2023-02-17T06:05:45.976Z,10.07
2023-02-17T06:12:48.247Z,10.04
2023-02-17T06:15:16.208Z,10.08
2023-02-17T06:22:19.528Z,10.10
2023-02-17T06:24:47.455Z,10.10
2023-02-17T06:27:15.354Z,10.10
2023-02-17T06:29:44.705Z,10.08
2023-02-17T06:32:12.606Z,10.09
2023-02-17T06:34:40.370Z,10.11
2023-02-17T06:37:08.243Z,10.12
2023-02-17T06:39:36.025Z,10.14
2023-02-17T06:42:04.099Z,10.15
2023-02-17T06:44:31.894Z,10.18
2023-02-17T06:46:59.903Z,10.23
2023-02-17T06:49:27.889Z,10.27
2023-02-17T06:51:55.712Z,10.29
2023-02-17T06:54:23.533Z,10.32
2023-02-17T06:56:51.379Z,10.33
2023-02-17T06:59:19.190Z,10.34
2023-02-17T07:01:49.468Z,10.37
2023-02-17T07:04:17.710Z,10.40
2023-02-17T07:06:45.566Z,10.46
2023-02-17T07:09:14.011Z,10.48
2023-02-17T07:11:42.832Z,10.51
2023-02-17T07:14:11.029Z,10.57
2023-02-17T07:16:39.626Z,10.63
2023-02-17T07:19:07.526Z,10.68
2023-02-17T07:21:36.125Z,10.73
2023-02-17T07:24:04.112Z,10.79
2023-02-17T07:26:32.027Z,10.87
2023-02-17T07:29:01.251Z,10.95
2023-02-17T07:31:29.218Z,11.04
2023-02-17T07:33:57.482Z,11.10
2023-02-17T07:36:25.332Z,10.78
2023-02-17T07:38:53.262Z,10.27
2023-02-17T07:41:24.712Z,9.87
2023-02-17T07:43:57.377Z,9.67
2023-02-17T07:46:26.636Z,10.03
2023-02-17T07:48:57.866Z,10.43
2023-02-17T07:51:26.877Z,10.72
2023-02-17T07:53:55.075Z,10.95
2023-02-17T07:56:23.544Z,11.15
2023-02-17T07:58:51.870Z,11.36
2023-02-17T08:01:25.393Z,11.52
2023-02-17T08:03:53.728Z,11.67
2023-02-17T08:06:24.041Z,11.76
2023-02-17T08:09:11.773Z,11.42
2023-02-17T08:11:59.341Z,10.91
2023-02-17T08:14:29.884Z,10.53
2023-02-17T08:16:59.913Z,10.51
2023-02-17T08:19:39.487Z,10.90
2023-02-17T08:22:16.069Z,11.28
2023-02-17T08:24:45.194Z,11.49
2023-02-17T08:27:15.294Z,11.68
2023-02-17T08:29:44.915Z,11.84
2023-02-17T08:32:14.858Z,11.95
2023-02-17T08:34:43.422Z,11.66
2023-02-17T08:37:11.645Z,11.08
2023-02-17T08:39:39.942Z,10.63
2023-02-17T08:42:07.934Z,10.31
2023-02-17T08:44:37.952Z,10.09
2023-02-17T08:47:10.957Z,10.00
2023-02-17T08:49:43.031Z,10.45
2023-02-17T08:52:13.003Z,10.95
2023-02-17T08:54:43.950Z,11.31
2023-02-17T08:57:15.961Z,11.64
2023-02-17T08:59:51.033Z,11.86
2023-02-17T09:02:22.984Z,11.59
2023-02-17T09:04:55.015Z,11.11
2023-02-17T09:07:26.467Z,10.75
2023-02-17T09:09:58.975Z,10.48
2023-02-17T09:12:30.980Z,10.38
2023-02-17T09:15:02.018Z,10.73
2023-02-17T09:17:34.068Z,11.09
2023-02-17T09:20:11.216Z,11.33
2023-02-17T09:22:46.988Z,11.54
2023-02-17T09:25:19.049Z,11.70
2023-02-17T09:27:51.021Z,11.87
2023-02-17T09:30:22.094Z,12.03
2023-02-17T09:32:54.004Z,12.17
2023-02-17T09:35:27.013Z,12.21
2023-02-17T09:37:58.008Z,11.83
2023-02-17T09:41:05.391Z,11.42
2023-02-17T09:43:35.513Z,11.07
2023-02-17T09:52:31.992Z,11.20
2023-02-17T09:55:06.165Z,11.72
2023-02-17T09:57:39.630Z,12.07
2023-02-17T10:00:14.509Z,12.34
2023-02-17T10:02:55.106Z,12.44
2023-02-17T10:05:28.154Z,12.03
2023-02-17T10:08:13.048Z,11.55
2023-02-17T10:10:56.923Z,11.13
2023-02-17T10:13:27.722Z,10.83
2023-02-17T10:16:03.345Z,10.62
2023-02-17T10:18:39.804Z,10.47
2023-02-17T10:21:13.317Z,10.34
2023-02-17T10:23:41.425Z,10.42
2023-02-17T10:26:35.081Z,10.88
2023-02-17T10:29:14.650Z,11.32
2023-02-17T10:31:46.931Z,11.61
2023-02-17T10:34:37.282Z,11.79
2023-02-17T10:37:15.122Z,12.00
2023-02-17T10:39:52.448Z,12.18
2023-02-17T10:42:30.264Z,12.32
2023-02-17T10:45:18.905Z,12.43
2023-02-17T10:47:47.448Z,12.35
2023-02-17T10:50:22.474Z,11.82
2023-02-17T10:52:53.462Z,11.27
2023-02-17T10:55:25.796Z,10.92
2023-02-17T10:58:20.420Z,11.09
2023-02-17T11:00:53.881Z,11.56
2023-02-17T11:03:24.741Z,11.85
2023-02-17T11:06:01.901Z,12.04
2023-02-17T11:08:56.945Z,12.14
2023-02-17T11:11:30.712Z,12.27
2023-02-17T11:14:20.838Z,12.43
2023-02-17T11:16:59.345Z,12.57
2023-02-17T11:19:27.632Z,12.70
2023-02-17T11:21:58.795Z,12.84
2023-02-17T11:24:28.362Z,12.96
2023-02-17T11:27:00.810Z,13.07
2023-02-17T11:29:30.188Z,13.17
2023-02-17T11:32:11.238Z,13.25
2023-02-17T11:34:42.230Z,13.24
2023-02-17T11:37:13.314Z,12.78
2023-02-17T11:39:44.169Z,12.31
2023-02-17T11:42:17.164Z,12.00
2023-02-17T11:44:45.926Z,12.43
2023-02-17T11:47:32.604Z,12.91
2023-02-17T11:50:38.904Z,13.22
2023-02-17T11:53:08.310Z,13.40
2023-02-17T11:55:59.665Z,13.49
2023-02-17T11:58:59.918Z,13.51
2023-02-17T12:01:52.386Z,13.53
2023-02-17T12:04:39.095Z,13.56
2023-02-17T12:07:20.540Z,13.19
2023-02-17T12:10:12.202Z,12.52
2023-02-17T12:13:01.584Z,11.99
2023-02-17T12:15:44.820Z,11.75
2023-02-17T12:18:34.783Z,12.11
2023-02-17T12:21:48.774Z,12.56
2023-02-17T12:24:48.553Z,12.72
2023-02-17T12:27:51.641Z,12.85
2023-02-17T12:30:50.792Z,12.92
2023-02-17T12:33:43.180Z,12.96
2023-02-17T12:36:14.748Z,13.02
2023-02-17T12:38:53.403Z,13.08
2023-02-17T12:41:29.609Z,13.14
2023-02-17T12:44:02.793Z,13.19
2023-02-17T12:46:44.298Z,13.22
2023-02-17T12:49:37.545Z,13.23
2023-02-17T12:52:19.749Z,13.30
2023-02-17T12:55:20.930Z,13.29
2023-02-17T12:57:56.015Z,13.25
2023-02-17T13:00:30.465Z,13.14
2023-02-17T13:02:59.752Z,13.11
2023-02-17T13:05:40.113Z,13.10
2023-02-17T13:08:22.644Z,13.06
2023-02-17T13:11:02.030Z,13.04
2023-02-17T13:13:32.763Z,13.00
2023-02-17T13:16:13.398Z,12.97
2023-02-17T13:18:43.918Z,12.95
2023-02-17T13:21:31.896Z,12.93
2023-02-17T13:24:13.015Z,12.92
2023-02-17T13:26:43.076Z,12.93
2023-02-17T13:29:32.334Z,12.92
2023-02-17T13:32:05.213Z,12.92
2023-02-17T13:34:42.507Z,12.98
2023-02-17T13:37:34.062Z,12.91
2023-02-17T13:40:29.801Z,12.88
2023-02-17T13:42:59.551Z,12.92
2023-02-17T13:45:29.971Z,12.86
2023-02-17T13:48:01.171Z,12.88
2023-02-17T13:50:39.581Z,12.89
2023-02-17T13:53:27.788Z,12.90
2023-02-17T13:56:02.065Z,12.94
2023-02-17T13:58:40.056Z,12.95
2023-02-17T14:01:20.843Z,12.93
2023-02-17T14:03:52.362Z,12.91
2023-02-17T14:06:41.073Z,12.89
2023-02-17T14:09:33.215Z,12.88
2023-02-17T14:12:04.467Z,12.84
2023-02-17T14:14:36.153Z,12.86
2023-02-17T14:17:09.357Z,12.85
2023-02-17T14:19:46.241Z,12.87
2023-02-17T14:22:31.100Z,12.85
2023-02-17T14:25:20.885Z,12.80
2023-02-17T14:27:51.114Z,12.78
2023-02-17T14:30:34.005Z,12.74
2023-02-17T14:33:08.906Z,12.75
2023-02-17T14:35:39.592Z,12.75
2023-02-17T14:38:10.505Z,12.67
2023-02-17T14:40:40.173Z,12.62
2023-02-17T14:43:08.207Z,12.61
2023-02-17T14:45:36.156Z,12.60
2023-02-17T14:48:04.445Z,12.58
2023-02-17T14:50:34.706Z,12.57
2023-02-17T14:53:02.542Z,12.57
2023-02-17T14:55:39.009Z,12.53
2023-02-17T14:58:06.910Z,12.57
2023-02-17T15:00:35.146Z,12.53
2023-02-17T15:03:03.064Z,12.54
2023-02-17T15:05:32.015Z,12.49
2023-02-17T15:08:01.602Z,12.49
2023-02-17T15:10:29.895Z,12.53
2023-02-17T15:12:58.170Z,12.54
2023-02-17T15:15:26.058Z,12.56
2023-02-17T15:17:53.903Z,12.53
2023-02-17T15:20:21.869Z,12.50
2023-02-17T15:22:52.986Z,12.53
2023-02-17T15:25:24.468Z,12.56
2023-02-17T15:27:52.680Z,12.48
2023-02-17T15:30:21.587Z,12.51
2023-02-17T15:32:49.601Z,12.51
2023-02-17T15:35:23.699Z,12.52
2023-02-17T15:37:52.215Z,12.49
2023-02-17T15:40:24.965Z,12.49
2023-02-17T15:43:01.516Z,12.40
2023-02-17T15:45:30.962Z,12.41
2023-02-17T15:48:07.917Z,12.42
2023-02-17T15:50:35.884Z,12.44
2023-02-17T15:53:03.768Z,12.38
2023-02-17T15:55:33.995Z,12.42
2023-02-17T15:58:05.421Z,12.46
2023-02-17T16:00:35.528Z,12.47
2023-02-17T16:03:03.753Z,12.48
2023-02-17T16:05:33.729Z,12.51
2023-02-17T16:08:01.534Z,12.51
2023-02-17T16:10:30.483Z,12.53
2023-02-17T16:13:01.216Z,12.55
2023-02-17T16:15:32.105Z,12.56
2023-02-17T16:18:00.234Z,12.57
2023-02-17T16:20:34.662Z,12.55
2023-02-17T16:23:03.623Z,12.55
2023-02-17T16:25:31.537Z,12.50
2023-02-17T16:28:00.132Z,12.48
2023-02-17T16:30:34.714Z,12.45
2023-02-17T16:33:03.611Z,12.43
2023-02-17T16:35:33.241Z,12.45
2023-02-17T16:38:22.749Z,12.47
2023-02-17T16:40:52.677Z,12.51
2023-02-17T16:43:23.916Z,12.46
2023-02-17T16:45:56.986Z,12.48
2023-02-17T16:48:27.860Z,12.52
2023-02-17T16:50:56.429Z,12.46
2023-02-17T16:53:24.847Z,12.45
2023-02-17T16:55:55.297Z,12.47
2023-02-17T16:58:27.740Z,12.45
2023-02-17T17:07:37.192Z,12.42
2023-02-17T17:10:17.605Z,12.47
2023-02-17T17:12:47.252Z,12.44
2023-02-17T17:15:17.669Z,12.42
2023-02-17T17:17:52.989Z,12.40
2023-02-17T17:20:32.065Z,12.41
2023-02-17T17:23:02.056Z,12.42
2023-02-17T17:25:32.128Z,12.38
2023-02-17T17:28:00.054Z,12.34
2023-02-17T17:30:35.659Z,12.34
2023-02-17T17:33:03.925Z,12.33
2023-02-17T17:35:32.503Z,12.35
2023-02-17T17:38:00.458Z,12.33
2023-02-17T17:40:48.444Z,12.33
2023-02-17T17:43:21.950Z,12.36
2023-02-17T17:45:51.313Z,12.34
2023-02-17T17:48:19.487Z,12.30
2023-02-17T17:50:49.607Z,12.28
2023-02-17T17:53:17.501Z,12.33
2023-02-17T17:55:47.817Z,12.35
2023-02-17T17:58:17.410Z,12.33
2023-02-17T18:00:45.630Z,12.30
2023-02-17T18:03:13.735Z,12.24
2023-02-17T18:05:58.598Z,12.25
2023-02-17T18:08:27.776Z,12.27
2023-02-17T18:10:55.870Z,12.22
2023-02-17T18:13:25.067Z,12.21
2023-02-17T18:15:53.833Z,12.23
2023-02-17T18:18:22.746Z,12.18
2023-02-17T18:20:51.331Z,12.23
2023-02-17T18:23:19.215Z,12.27
2023-02-17T18:25:47.268Z,12.25
2023-02-17T18:28:15.244Z,12.11
2023-02-17T18:30:43.546Z,12.02
2023-02-17T18:33:11.528Z,11.97
2023-02-17T18:35:40.267Z,12.01
2023-02-17T18:38:08.160Z,12.03
2023-02-17T18:40:39.640Z,12.00
2023-02-17T18:43:09.185Z,12.08
2023-02-17T18:45:37.000Z,12.13
2023-02-17T18:48:04.934Z,12.12
2023-02-17T18:50:33.127Z,12.09
2023-02-17T18:53:03.620Z,12.06
2023-02-17T18:55:33.035Z,12.06
2023-02-17T18:58:00.891Z,12.06
2023-02-17T19:00:29.049Z,12.07
2023-02-17T19:02:56.962Z,12.06
2023-02-17T19:05:28.775Z,12.06
2023-02-17T19:07:56.586Z,12.14
2023-02-17T19:10:24.450Z,12.19
2023-02-17T19:12:52.307Z,12.21
2023-02-17T19:15:21.129Z,12.25
2023-02-17T19:17:49.065Z,12.27
2023-02-17T19:20:17.231Z,12.30
2023-02-17T19:22:45.385Z,12.30
2023-02-17T19:25:13.245Z,12.31
2023-02-17T19:27:42.129Z,12.31
2023-02-17T19:30:11.381Z,12.28
2023-02-17T19:32:39.519Z,12.27
2023-02-17T19:35:09.989Z,12.29
2023-02-17T19:37:39.337Z,12.35
2023-02-17T19:40:07.917Z,12.38
2023-02-17T19:42:36.594Z,12.39
2023-02-17T19:45:04.993Z,12.39
2023-02-17T19:47:32.993Z,12.40
2023-02-17T19:50:00.881Z,12.41
2023-02-17T19:52:28.817Z,12.41
2023-02-17T19:54:56.845Z,12.51
2023-02-17T19:57:24.850Z,12.53
2023-02-17T19:59:52.799Z,12.53
2023-02-17T20:02:20.733Z,12.56
2023-02-17T20:04:48.656Z,12.59
2023-02-17T20:07:16.500Z,12.59
2023-02-17T20:09:44.322Z,12.61
2023-02-17T20:12:12.169Z,12.67
2023-02-17T20:14:39.994Z,12.72
2023-02-17T20:17:08.518Z,12.73
2023-02-17T20:19:38.552Z,12.73
2023-02-17T20:22:08.088Z,12.74
2023-02-17T20:24:37.556Z,12.76
2023-02-17T20:27:05.470Z,12.80
2023-02-17T20:29:35.592Z,12.84
2023-02-17T20:32:03.681Z,12.87
2023-02-17T20:34:39.381Z,12.92
2023-02-17T20:37:08.995Z,13.01
2023-02-17T20:39:38.833Z,13.05
2023-02-17T20:42:07.022Z,13.09
2023-02-17T20:44:35.554Z,13.15
2023-02-17T20:47:03.874Z,13.19
2023-02-17T20:49:31.635Z,13.28
2023-02-17T20:51:59.517Z,13.31
2023-02-17T20:54:27.468Z,13.33
2023-02-17T20:56:57.845Z,13.36
2023-02-17T20:59:26.005Z,13.41
2023-02-17T21:01:53.924Z,13.42
2023-02-17T21:04:21.777Z,13.46
2023-02-17T21:06:50.868Z,13.44
2023-02-17T21:09:19.479Z,13.49
2023-02-17T21:11:47.969Z,13.46
2023-02-17T21:14:16.359Z,13.45
2023-02-17T21:16:44.987Z,13.43
2023-02-17T21:19:13.140Z,13.43
2023-02-17T21:21:41.143Z,13.47
2023-02-17T21:24:09.356Z,13.47
2023-02-17T21:26:37.308Z,13.51
2023-02-17T21:29:05.540Z,13.48
2023-02-17T21:31:33.925Z,13.49
2023-02-17T21:34:02.021Z,13.52
2023-02-17T21:36:30.332Z,13.48
2023-02-17T21:38:59.207Z,13.45
2023-02-17T21:41:27.784Z,13.46
2023-02-17T21:44:14.570Z,13.48
2023-02-17T21:46:43.451Z,13.47
2023-02-17T21:49:12.694Z,13.48
2023-02-17T21:51:41.396Z,13.52
2023-02-17T21:54:10.626Z,13.61
2023-02-17T21:56:38.521Z,13.68
2023-02-17T21:59:06.881Z,13.63
2023-02-17T22:01:35.202Z,13.40
2023-02-17T22:04:03.429Z,13.24
2023-02-17T22:06:36.505Z,13.04
2023-02-17T22:09:06.996Z,12.70
2023-02-17T22:11:38.721Z,12.39
2023-02-17T22:14:14.712Z,12.23
2023-02-17T22:16:44.114Z,12.17
2023-02-17T22:19:15.858Z,12.08
2023-02-17T22:21:44.714Z,11.98
2023-02-17T22:24:13.669Z,12.00
2023-02-17T22:26:42.726Z,12.00
2023-02-17T22:29:10.566Z,11.89
2023-02-17T22:31:38.462Z,11.80
2023-02-17T22:34:10.030Z,11.74
2023-02-17T22:36:38.596Z,11.73
2023-02-17T22:39:08.486Z,11.71
2023-02-17T22:41:36.563Z,11.70
2023-02-17T22:44:04.594Z,11.67
2023-02-17T22:46:33.649Z,11.68
2023-02-17T22:49:01.611Z,11.64
2023-02-17T22:51:40.080Z,11.64
2023-02-17T22:54:09.248Z,11.61
2023-02-17T22:56:37.391Z,11.62
2023-02-17T22:59:06.118Z,11.56
2023-02-17T23:01:36.472Z,11.58
2023-02-17T23:04:05.473Z,11.63
2023-02-17T23:06:36.297Z,11.67
2023-02-17T23:09:05.979Z,11.59
2023-02-17T23:11:55.092Z,11.40
2023-02-17T23:14:34.514Z,11.34
2023-02-17T23:17:09.473Z,11.29
2023-02-17T23:19:38.712Z,11.29
2023-02-17T23:22:10.513Z,11.27
2023-02-17T23:24:38.307Z,11.29
2023-02-17T23:34:44.119Z,11.46
2023-02-17T23:37:11.925Z,11.53
2023-02-17T23:39:39.961Z,11.55
2023-02-17T23:42:07.769Z,11.64
2023-02-17T23:44:35.692Z,11.62
2023-02-17T23:47:04.455Z,11.47
2023-02-17T23:49:32.275Z,11.40
2023-02-17T23:52:00.606Z,11.34
2023-02-17T23:54:28.874Z,11.37
2023-02-17T23:56:56.752Z,10.85
2023-02-17T23:59:24.488Z,10.20
